createdAt,value
2018-12-10T00:00:06.886Z,100965.81
2018-12-10T00:02:34.268Z,100957.67
2018-12-10T00:05:01.664Z,100975.22
2018-12-10T00:07:29.040Z,100967.35
2018-12-10T00:09:56.427Z,100983.81
2018-12-10T00:12:23.803Z,100982.22
2018-12-10T00:14:51.198Z,100980.89
2018-12-10T00:17:18.580Z,100987.56
2018-12-10T00:19:45.980Z,100985.59
2018-12-10T00:22:13.368Z,100988.85
2018-12-10T00:24:40.769Z,100989.83
2018-12-10T00:27:08.177Z,100992.05
2018-12-10T00:29:35.571Z,100990.80
2018-12-10T00:32:02.956Z,100992.82
2018-12-10T00:34:30.352Z,100999.89
2018-12-10T00:36:57.746Z,101001.34
2018-12-10T00:39:25.214Z,101002.06
2018-12-10T00:41:52.596Z,100995.34
2018-12-10T00:44:19.980Z,101013.67
2018-12-10T00:46:47.381Z,101005.57
2018-12-10T00:49:14.761Z,101021.62
2018-12-10T00:51:42.143Z,101014.76
2018-12-10T00:54:09.529Z,101014.75
2018-12-10T00:56:36.925Z,101027.25
2018-12-10T00:59:04.306Z,101031.85
2018-12-10T01:01:31.696Z,101029.37
2018-12-10T01:03:59.088Z,101034.17
2018-12-10T01:06:26.476Z,101038.91
2018-12-10T01:08:53.853Z,101046.60
2018-12-10T01:11:21.248Z,101048.66
2018-12-10T01:13:48.627Z,101052.24
2018-12-10T01:16:16.011Z,101049.73
2018-12-10T01:18:43.416Z,101067.55
2018-12-10T01:21:10.863Z,101071.13
2018-12-10T01:23:38.271Z,101071.47
2018-12-10T01:26:05.657Z,101078.99
2018-12-10T01:28:33.048Z,101078.93
2018-12-10T01:31:03.544Z,101077.52
2018-12-10T01:33:30.929Z,101086.66
2018-12-10T01:35:58.305Z,101081.95
2018-12-10T01:38:25.697Z,101100.05
2018-12-10T01:40:53.084Z,101095.34
2018-12-10T01:43:20.476Z,101098.68
2018-12-10T01:45:47.857Z,101106.02
2018-12-10T01:48:15.248Z,101100.80
2018-12-10T01:50:42.640Z,101110.30
2018-12-10T01:53:10.067Z,101116.03
2018-12-10T01:55:37.452Z,101123.55
2018-12-10T01:58:04.843Z,101134.81
2018-12-10T02:00:32.232Z,101124.83
2018-12-10T02:02:59.619Z,101134.39
2018-12-10T02:05:27.007Z,101130.91
2018-12-10T02:07:55.400Z,101132.15
2018-12-10T02:10:22.795Z,101134.14
2018-12-10T02:12:50.210Z,101129.81
2018-12-10T02:15:17.635Z,101139.87
2018-12-10T02:17:45.020Z,101147.14
2018-12-10T02:20:12.404Z,101140.34
2018-12-10T02:22:39.793Z,101143.94
2018-12-10T02:25:07.273Z,101140.55
2018-12-10T02:27:34.711Z,101143.80
2018-12-10T02:30:02.114Z,101140.61
2018-12-10T02:32:29.630Z,101150.64
2018-12-10T02:34:57.153Z,101150.56
2018-12-10T02:37:24.517Z,101146.25
2018-12-10T02:39:51.911Z,101143.53
2018-12-10T02:42:19.296Z,101145.36
2018-12-10T02:44:46.733Z,101158.44
2018-12-10T02:47:14.121Z,101161.71
2018-12-10T02:49:41.587Z,101165.13
2018-12-10T02:52:08.973Z,101163.36
2018-12-10T02:54:36.358Z,101166.50
2018-12-10T02:57:03.868Z,101166.34
2018-12-10T02:59:31.248Z,101163.25
2018-12-10T03:01:58.713Z,101163.92
2018-12-10T03:04:26.225Z,101164.80
2018-12-10T03:06:53.614Z,101170.26
2018-12-10T03:09:21.073Z,101168.44
2018-12-10T03:11:48.478Z,101164.84
2018-12-10T03:14:15.861Z,101173.20
2018-12-10T03:16:43.228Z,101174.89
2018-12-10T03:19:10.612Z,101178.34
2018-12-10T03:21:38.005Z,101174.98
2018-12-10T03:24:05.393Z,101178.16
2018-12-10T03:26:32.776Z,101179.36
2018-12-10T03:29:00.169Z,101185.00
2018-12-10T03:31:27.547Z,101196.55
2018-12-10T03:33:54.930Z,101194.83
2018-12-10T03:36:22.310Z,101205.23
2018-12-10T03:38:49.684Z,101206.51
2018-12-10T03:41:17.076Z,101205.22
2018-12-10T03:43:44.661Z,101212.77
2018-12-10T03:46:12.120Z,101224.02
2018-12-10T03:48:39.521Z,101211.62
2018-12-10T03:51:06.900Z,101215.34
2018-12-10T03:56:06.497Z,101214.00
2018-12-10T03:58:34.000Z,101216.45
2018-12-10T04:01:01.379Z,101218.74
2018-12-10T04:03:28.763Z,101217.41
2018-12-10T04:05:56.147Z,101222.41
2018-12-10T04:08:23.532Z,101219.21
2018-12-10T04:10:50.927Z,101223.58
2018-12-10T04:13:18.321Z,101238.62
2018-12-10T04:15:45.742Z,101237.89
2018-12-10T04:18:13.197Z,101240.73
2018-12-10T04:20:40.583Z,101251.45
2018-12-10T04:23:07.973Z,101247.58
2018-12-10T04:25:35.361Z,101246.77
2018-12-10T04:28:02.784Z,101248.20
2018-12-10T04:30:30.242Z,101251.09
2018-12-10T04:32:57.623Z,101249.22
2018-12-10T04:35:25.011Z,101246.04
2018-12-10T04:37:52.383Z,101247.25
2018-12-10T04:40:19.796Z,101249.20
2018-12-10T04:42:47.259Z,101246.22
2018-12-10T04:45:14.691Z,101249.00
2018-12-10T04:47:42.073Z,101252.68
2018-12-10T04:50:09.512Z,101251.47
2018-12-10T04:52:36.896Z,101253.77
2018-12-10T04:55:04.977Z,101250.68
2018-12-10T04:57:32.444Z,101256.17
2018-12-10T04:59:59.872Z,101261.61
2018-12-10T05:02:27.319Z,101268.13
2018-12-10T05:04:54.712Z,101276.23
2018-12-10T05:07:22.104Z,101284.04
2018-12-10T05:09:49.480Z,101267.11
2018-12-10T05:12:16.881Z,101283.66
2018-12-10T05:14:44.264Z,101278.80
2018-12-10T05:17:11.834Z,101285.12
2018-12-10T05:19:39.309Z,101281.63
2018-12-10T05:22:06.687Z,101293.53
2018-12-10T05:24:34.120Z,101297.25
2018-12-10T05:27:01.511Z,101297.84
2018-12-10T05:29:28.880Z,101295.64
2018-12-10T05:31:56.268Z,101301.21
2018-12-10T05:34:23.649Z,101299.92
2018-12-10T05:36:51.041Z,101291.00
2018-12-10T05:39:18.501Z,101293.03
2018-12-10T05:41:45.887Z,101310.30
2018-12-10T05:44:13.277Z,101300.98
2018-12-10T05:46:40.660Z,101304.05
2018-12-10T05:49:08.080Z,101307.56
2018-12-10T05:51:35.475Z,101309.67
2018-12-10T05:54:02.858Z,101311.04
2018-12-10T05:56:30.239Z,101314.36
2018-12-10T05:58:57.636Z,101315.83
2018-12-10T06:01:25.020Z,101317.89
2018-12-10T06:03:56.322Z,101320.30
2018-12-10T06:06:23.707Z,101330.50
2018-12-10T06:08:51.184Z,101327.34
2018-12-10T06:11:18.572Z,101335.06
2018-12-10T06:13:46.173Z,101335.41
2018-12-10T06:16:13.551Z,101333.03
2018-12-10T06:18:40.939Z,101341.03
2018-12-10T06:21:08.321Z,101350.14
2018-12-10T06:23:37.703Z,101349.50
2018-12-10T06:26:05.083Z,101354.88
2018-12-10T06:28:32.468Z,101357.88
2018-12-10T06:30:59.852Z,101355.63
2018-12-10T06:33:27.227Z,101352.73
2018-12-10T06:35:54.625Z,101357.88
2018-12-10T06:38:22.069Z,101358.64
2018-12-10T06:40:49.454Z,101362.25
2018-12-10T06:43:16.835Z,101370.23
2018-12-10T06:45:44.304Z,101378.63
2018-12-10T06:48:11.908Z,101378.97
2018-12-10T06:50:39.275Z,101388.81
2018-12-10T06:53:07.601Z,101381.70
2018-12-10T06:55:34.978Z,101389.77
2018-12-10T06:58:02.360Z,101379.70
2018-12-10T07:00:29.746Z,101386.15
2018-12-10T07:02:57.125Z,101387.27
2018-12-10T07:05:30.318Z,101380.34
2018-12-10T07:11:00.460Z,101388.02
2018-12-10T07:13:33.942Z,101392.10
2018-12-10T07:16:05.053Z,101394.86
2018-12-10T07:18:39.717Z,101393.09
2018-12-10T07:21:07.096Z,101394.62
2018-12-10T07:23:34.496Z,101396.78
2018-12-10T07:26:01.976Z,101395.98
2018-12-10T07:28:29.402Z,101403.72
2018-12-10T07:30:56.790Z,101406.43
2018-12-10T07:33:24.195Z,101406.39
2018-12-10T07:35:51.585Z,101404.75
2018-12-10T07:38:18.974Z,101405.02
2018-12-10T07:40:46.365Z,101408.33
2018-12-10T07:43:19.439Z,101409.43
2018-12-10T07:45:50.649Z,101415.21
2018-12-10T07:48:20.948Z,101419.89
2018-12-10T07:50:54.392Z,101426.03
2018-12-10T07:56:28.772Z,101429.66
2018-12-10T07:58:50.649Z,101423.04
2018-12-10T08:01:24.476Z,101437.84
2018-12-10T08:03:51.852Z,101437.55
2018-12-10T08:06:21.200Z,101454.48
2018-12-10T08:08:50.285Z,101450.59
2018-12-10T08:11:17.866Z,101452.28
2018-12-10T08:13:45.260Z,101441.42
2018-12-10T08:16:12.763Z,101447.84
2018-12-10T08:18:40.158Z,101452.69
2018-12-10T08:21:07.532Z,101460.25
2018-12-10T08:23:34.921Z,101456.32
2018-12-10T08:26:02.309Z,101451.94
2018-12-10T08:28:46.626Z,101452.44
2018-12-10T08:31:26.531Z,101456.83
2018-12-10T08:33:53.997Z,101461.56
2018-12-10T08:36:21.499Z,101458.62
2018-12-10T08:38:48.964Z,101464.36
2018-12-10T08:41:16.349Z,101460.39
2018-12-10T08:43:43.727Z,101472.08
2018-12-10T08:46:11.214Z,101482.41
2018-12-10T08:48:50.890Z,101464.56
2018-12-10T08:51:18.306Z,101469.02
2018-12-10T08:56:45.000Z,101480.47
2018-12-10T08:59:12.513Z,101482.91
2018-12-10T09:01:40.002Z,101478.65
2018-12-10T09:04:07.534Z,101484.92
2018-12-10T09:06:34.936Z,101482.84
2018-12-10T09:09:02.330Z,101497.59
2018-12-10T09:11:29.707Z,101510.25
2018-12-10T09:13:57.093Z,101509.12
2018-12-10T09:16:25.484Z,101508.48
2018-12-10T09:18:52.872Z,101518.70
2018-12-10T09:21:20.263Z,101517.54
2018-12-10T09:23:47.663Z,101514.58
2018-12-10T09:26:15.049Z,101517.41
2018-12-10T09:28:42.451Z,101514.58
2018-12-10T09:31:09.851Z,101526.91
2018-12-10T09:33:40.552Z,101521.77
2018-12-10T09:36:07.989Z,101525.15
2018-12-10T09:38:35.402Z,101525.94
2018-12-10T09:41:02.777Z,101534.98
2018-12-10T09:43:30.188Z,101541.67
2018-12-10T09:45:57.668Z,101535.36
2018-12-10T09:48:41.832Z,101545.08
2018-12-10T09:51:09.212Z,101535.23
2018-12-10T09:53:36.604Z,101533.06
2018-12-10T09:56:12.519Z,101538.03
2018-12-10T09:58:46.106Z,101529.74
2018-12-10T10:01:19.684Z,101520.80
2018-12-10T10:03:48.027Z,101521.77
2018-12-10T10:09:14.092Z,101521.41
2018-12-10T10:11:41.467Z,101510.02
2018-12-10T10:14:14.844Z,101513.78
2018-12-10T10:16:54.929Z,101517.42
2018-12-10T10:19:22.323Z,101517.63
2018-12-10T10:21:49.700Z,101516.72
2018-12-10T10:24:17.093Z,101523.70
2018-12-10T10:26:44.488Z,101508.70
2018-12-10T10:29:17.680Z,101516.31
2018-12-10T10:31:45.063Z,101519.33
2018-12-10T10:34:12.443Z,101521.73
2018-12-10T10:36:39.885Z,101530.48
2018-12-10T10:39:07.329Z,101523.43
2018-12-10T10:41:41.404Z,101520.83
2018-12-10T10:44:13.092Z,101524.39
2018-12-10T10:46:40.539Z,101529.05
2018-12-10T10:49:07.917Z,101524.58
2018-12-10T10:51:35.314Z,101524.52
2018-12-10T10:54:02.693Z,101523.20
2018-12-10T10:56:30.357Z,101521.04
2018-12-10T10:58:57.749Z,101518.59
2018-12-10T11:01:44.179Z,101513.81
2018-12-10T11:04:11.575Z,101510.03
2018-12-10T11:06:39.036Z,101503.84
2018-12-10T11:09:15.033Z,101507.51
2018-12-10T11:11:36.637Z,101510.30
2018-12-10T11:14:04.065Z,101503.64
2018-12-10T11:16:31.455Z,101506.06
2018-12-10T11:18:58.909Z,101499.62
2018-12-10T11:21:29.995Z,101506.69
2018-12-10T11:23:57.404Z,101511.52
2018-12-10T11:26:24.785Z,101505.45
2018-12-10T11:28:58.028Z,101498.09
2018-12-10T11:31:25.400Z,101505.49
2018-12-10T11:33:52.809Z,101506.20
2018-12-10T11:36:20.192Z,101503.38
2018-12-10T11:38:47.595Z,101507.76
2018-12-10T11:41:14.972Z,101508.90
2018-12-10T11:43:42.355Z,101510.33
2018-12-10T11:46:15.144Z,101506.08
2018-12-10T11:48:42.529Z,101507.48
2018-12-10T11:51:10.012Z,101493.51
2018-12-10T11:53:37.425Z,101487.28
2018-12-10T11:56:04.804Z,101484.78
2018-12-10T11:58:34.912Z,101489.80
2018-12-10T12:01:02.527Z,101484.00
2018-12-10T12:03:31.843Z,101484.66
2018-12-10T12:05:59.296Z,101487.67
2018-12-10T12:08:27.679Z,101486.63
2018-12-10T12:10:55.073Z,101483.12
2018-12-10T12:13:22.455Z,101477.66
2018-12-10T12:15:49.837Z,101471.56
2018-12-10T12:18:17.220Z,101464.34
2018-12-10T12:20:44.650Z,101468.38
2018-12-10T12:23:12.088Z,101467.75
2018-12-10T12:25:39.475Z,101466.87
2018-12-10T12:28:06.943Z,101473.17
2018-12-10T12:30:34.331Z,101475.05
2018-12-10T12:33:01.719Z,101462.89
2018-12-10T12:35:29.374Z,101462.25
2018-12-10T12:37:56.752Z,101454.63
2018-12-10T12:40:24.133Z,101444.45
2018-12-10T12:42:53.621Z,101447.95
2018-12-10T12:45:21.001Z,101450.28
2018-12-10T12:47:51.584Z,101442.20
2018-12-10T12:50:19.030Z,101446.33
2018-12-10T12:52:46.510Z,101455.19
2018-12-10T12:55:13.991Z,101461.83
2018-12-10T12:57:41.385Z,101463.34
2018-12-10T13:00:08.988Z,101468.98
2018-12-10T13:02:36.431Z,101471.94
2018-12-10T13:05:04.099Z,101472.45
2018-12-10T13:07:31.479Z,101487.97
2018-12-10T13:09:59.844Z,101480.16
2018-12-10T13:12:27.535Z,101464.69
2018-12-10T13:14:55.880Z,101466.70
2018-12-10T13:17:23.411Z,101466.73
2018-12-10T13:19:51.931Z,101460.25
2018-12-10T13:22:19.313Z,101462.61
2018-12-10T13:24:46.705Z,101466.62
2018-12-10T13:27:14.084Z,101465.95
2018-12-10T13:29:41.474Z,101468.39
2018-12-10T13:32:08.950Z,101467.08
2018-12-10T13:34:36.338Z,101464.03
2018-12-10T13:37:03.767Z,101463.13
2018-12-10T13:39:31.156Z,101464.66
2018-12-10T13:41:58.531Z,101473.34
2018-12-10T13:44:25.915Z,101469.69
2018-12-10T13:46:53.338Z,101472.45
2018-12-10T13:49:20.828Z,101476.86
2018-12-10T13:51:48.999Z,101473.15
2018-12-10T13:54:16.385Z,101475.08
2018-12-10T13:56:43.885Z,101467.77
2018-12-10T13:59:11.317Z,101474.88
2018-12-10T14:01:38.756Z,101474.80
2018-12-10T14:04:08.104Z,101476.16
2018-12-10T14:06:35.489Z,101479.55
2018-12-10T14:09:07.935Z,101474.91
2018-12-10T14:11:32.444Z,101482.09
2018-12-10T14:13:59.834Z,101481.70
2018-12-10T14:16:27.317Z,101481.28
2018-12-10T14:18:54.683Z,101477.90
2018-12-10T14:21:22.065Z,101479.59
2018-12-10T14:23:49.491Z,101476.33
2018-12-10T14:26:16.884Z,101476.95
2018-12-10T14:28:44.318Z,101491.34
2018-12-10T14:31:11.757Z,101488.08
2018-12-10T14:33:39.119Z,101489.17
2018-12-10T14:36:06.564Z,101493.59
2018-12-10T14:38:33.987Z,101490.55
2018-12-10T14:41:01.374Z,101491.34
2018-12-10T14:43:28.840Z,101498.04
2018-12-10T14:45:56.263Z,101493.78
2018-12-10T14:48:23.711Z,101501.84
2018-12-10T14:50:51.091Z,101504.19
2018-12-10T14:53:18.482Z,101511.92
2018-12-10T14:55:45.861Z,101509.75
2018-12-10T14:58:13.255Z,101512.07
2018-12-10T15:00:40.656Z,101509.69
2018-12-10T15:03:08.097Z,101507.48
2018-12-10T15:05:35.484Z,101512.61
2018-12-10T15:08:02.963Z,101517.97
2018-12-10T15:10:30.406Z,101526.67
2018-12-10T15:12:57.808Z,101518.06
2018-12-10T15:15:25.193Z,101522.58
2018-12-10T15:17:52.603Z,101528.37
2018-12-10T15:20:19.996Z,101528.59
2018-12-10T15:22:47.379Z,101538.69
2018-12-10T15:25:32.988Z,101540.06
2018-12-10T15:28:00.382Z,101551.56
2018-12-10T15:30:27.859Z,101551.33
2018-12-10T15:32:57.210Z,101547.98
2018-12-10T15:35:24.617Z,101550.39
2018-12-10T15:37:52.011Z,101555.55
2018-12-10T15:40:22.635Z,101558.86
2018-12-10T15:42:50.052Z,101557.30
2018-12-10T15:45:17.537Z,101557.39
2018-12-10T15:47:44.943Z,101555.13
2018-12-10T15:50:13.476Z,101555.28
2018-12-10T15:52:40.880Z,101558.83
2018-12-10T15:55:08.321Z,101557.39
2018-12-10T15:57:35.766Z,101553.87
2018-12-10T16:00:03.956Z,101557.00
2018-12-10T16:02:31.365Z,101555.05
2018-12-10T16:04:58.755Z,101547.89
2018-12-10T16:07:26.148Z,101562.84
2018-12-10T16:09:53.626Z,101564.11
2018-12-10T16:12:21.009Z,101564.45
2018-12-10T16:14:48.395Z,101564.17
2018-12-10T16:17:15.782Z,101565.83
2018-12-10T16:19:43.205Z,101566.62
2018-12-10T16:22:10.596Z,101565.87
2018-12-10T16:24:46.053Z,101566.80
2018-12-10T16:27:13.596Z,101576.82
2018-12-10T16:29:40.979Z,101570.94
2018-12-10T16:32:22.899Z,101573.66
2018-12-10T16:34:58.839Z,101586.67
2018-12-10T16:37:29.476Z,101576.09
2018-12-10T16:39:56.875Z,101582.13
2018-12-10T16:42:24.267Z,101585.41
2018-12-10T16:45:04.240Z,101585.39
2018-12-10T16:47:31.702Z,101586.22
2018-12-10T16:49:59.148Z,101591.34
2018-12-10T16:52:26.553Z,101585.00
2018-12-10T16:54:53.986Z,101581.88
2018-12-10T16:57:21.369Z,101579.65
2018-12-10T16:59:48.791Z,101576.60
2018-12-10T17:02:16.197Z,101581.28
2018-12-10T17:04:43.580Z,101584.70
2018-12-10T17:07:10.980Z,101590.32
2018-12-10T17:09:39.972Z,101583.00
2018-12-10T17:12:07.545Z,101591.82
2018-12-10T17:14:34.980Z,101591.69
2018-12-10T17:17:04.425Z,101592.16
2018-12-10T17:19:32.751Z,101600.63
2018-12-10T17:22:00.150Z,101606.23
2018-12-10T17:24:44.458Z,101607.09
2018-12-10T17:27:12.208Z,101605.58
2018-12-10T17:29:39.649Z,101609.23
2018-12-10T17:32:13.396Z,101608.05
2018-12-10T17:34:53.629Z,101612.17
2018-12-10T17:40:20.356Z,101623.61
2018-12-10T17:42:47.751Z,101618.45
2018-12-10T17:45:15.215Z,101618.70
2018-12-10T17:48:02.316Z,101626.28
2018-12-10T17:53:47.360Z,101627.62
2018-12-10T17:56:14.784Z,101623.03
2018-12-10T17:58:44.000Z,101637.64
2018-12-10T18:01:28.398Z,101630.75
2018-12-10T18:07:00.141Z,101626.63
2018-12-10T18:09:27.557Z,101629.95
2018-12-10T18:12:01.371Z,101627.71
2018-12-10T18:14:32.143Z,101624.80
2018-12-10T18:20:05.363Z,101629.58
2018-12-10T18:22:42.424Z,101642.33
2018-12-10T18:25:09.852Z,101646.59
2018-12-10T18:27:52.084Z,101646.33
2018-12-10T18:30:22.844Z,101652.87
2018-12-10T18:32:56.513Z,101647.00
2018-12-10T18:35:27.332Z,101647.75
2018-12-10T18:38:01.287Z,101654.56
2018-12-10T18:40:28.724Z,101649.71
2018-12-10T18:42:56.120Z,101655.23
2018-12-10T18:45:23.556Z,101661.17
2018-12-10T18:47:52.895Z,101659.20
2018-12-10T18:53:26.190Z,101657.85
2018-12-10T18:58:59.205Z,101660.49
2018-12-10T19:01:30.500Z,101652.83
2018-12-10T19:04:01.677Z,101655.72
2018-12-10T19:06:40.306Z,101667.00
2018-12-10T19:09:11.709Z,101653.55
2018-12-10T19:11:45.557Z,101661.07
2018-12-10T19:14:19.212Z,101653.23
2018-12-10T19:16:53.165Z,101659.51
2018-12-10T19:19:24.246Z,101662.56
2018-12-10T19:21:55.207Z,101663.38
2018-12-10T19:24:26.412Z,101658.28
2018-12-10T19:26:57.311Z,101664.66
2018-12-10T19:29:24.710Z,101658.73
2018-12-10T19:31:59.432Z,101666.55
2018-12-10T19:34:27.768Z,101659.88
2018-12-10T19:36:58.238Z,101657.44
2018-12-10T19:39:29.260Z,101649.18
2018-12-10T19:42:02.677Z,101652.55
2018-12-10T19:44:39.425Z,101647.22
2018-12-10T19:47:26.434Z,101654.71
2018-12-10T19:49:55.202Z,101654.34
2018-12-10T19:52:35.201Z,101659.02
2018-12-10T19:55:08.503Z,101651.77
2018-12-10T19:57:35.880Z,101645.62
2018-12-10T20:00:09.573Z,101650.47
2018-12-10T20:02:43.240Z,101655.03
2018-12-10T20:05:25.698Z,101656.21
2018-12-10T20:07:54.704Z,101660.08
2018-12-10T20:10:25.606Z,101669.67
2018-12-10T20:13:01.546Z,101664.92
2018-12-10T20:15:34.745Z,101671.40
2018-12-10T20:18:07.880Z,101670.69
2018-12-10T20:20:55.550Z,101663.66
2018-12-10T20:23:22.945Z,101666.88
2018-12-10T20:26:03.761Z,101679.89
2018-12-10T20:28:35.358Z,101679.27
2018-12-10T20:31:08.527Z,101669.89
2018-12-10T20:33:37.756Z,101684.53
2018-12-10T20:36:07.129Z,101689.19
2018-12-10T20:38:39.022Z,101689.30
2018-12-10T20:41:10.060Z,101690.78
2018-12-10T20:43:43.869Z,101687.64
2018-12-10T20:46:11.384Z,101689.78
2018-12-10T20:54:57.288Z,101677.11
2018-12-10T20:57:26.327Z,101681.66
2018-12-10T20:59:59.690Z,101685.63
2018-12-10T21:02:29.946Z,101688.12
2018-12-10T21:11:01.481Z,101686.21
2018-12-10T21:13:40.342Z,101683.88
2018-12-10T21:16:14.357Z,101686.25
2018-12-10T21:18:45.480Z,101683.67
2018-12-10T21:21:16.696Z,101678.03
2018-12-10T21:23:47.768Z,101685.25
2018-12-10T21:26:26.667Z,101688.00
2018-12-10T21:29:00.720Z,101688.88
2018-12-10T21:31:33.857Z,101686.55
2018-12-10T21:34:07.738Z,101692.97
2018-12-10T21:36:41.022Z,101692.72
2018-12-10T21:39:14.688Z,101698.42
2018-12-10T21:41:45.799Z,101689.85
2018-12-10T21:44:19.680Z,101693.15
2018-12-10T21:46:53.743Z,101694.55
2018-12-10T21:49:34.232Z,101687.55
2018-12-10T21:52:08.804Z,101694.42
2018-12-10T21:54:42.776Z,101690.92
2018-12-10T21:57:11.998Z,101674.28
2018-12-10T21:59:46.032Z,101677.02
2018-12-10T22:02:19.240Z,101673.37
2018-12-10T22:04:53.129Z,101681.34
2018-12-10T22:07:26.484Z,101684.82
2018-12-10T22:09:57.624Z,101672.69
2018-12-10T22:12:26.856Z,101676.73
2018-12-10T22:15:00.629Z,101679.56
2018-12-10T22:17:33.928Z,101680.27
2018-12-10T22:20:07.116Z,101671.97
2018-12-10T22:22:40.252Z,101679.67
2018-12-10T22:25:11.380Z,101674.97
2018-12-10T22:27:45.357Z,101680.25
2018-12-10T22:30:16.534Z,101664.36
2018-12-10T22:32:50.413Z,101667.05
2018-12-10T22:35:21.620Z,101670.41
2018-12-10T22:37:55.420Z,101663.06
2018-12-10T22:40:26.524Z,101674.39
2018-12-10T22:42:57.658Z,101679.75
2018-12-10T22:45:32.581Z,101664.53
2018-12-10T22:48:05.717Z,101666.87
2018-12-10T22:50:36.968Z,101660.89
2018-12-10T22:53:10.788Z,101663.23
2018-12-10T22:55:44.701Z,101657.23
2018-12-10T22:58:18.481Z,101666.33
2018-12-10T23:00:52.328Z,101663.85
2018-12-10T23:03:26.372Z,101662.16
2018-12-10T23:05:59.449Z,101664.49
2018-12-10T23:08:33.489Z,101669.00
2018-12-10T23:11:07.399Z,101665.07
2018-12-10T23:13:36.704Z,101664.87
2018-12-10T23:16:10.544Z,101652.19
2018-12-10T23:18:41.751Z,101672.29
2018-12-10T23:21:12.697Z,101660.39
2018-12-10T23:23:46.523Z,101665.67
2018-12-10T23:26:19.832Z,101670.39
2018-12-10T23:28:49.040Z,101671.68
2018-12-10T23:31:19.499Z,101672.08
2018-12-10T23:33:55.152Z,101673.20
2018-12-10T23:36:26.459Z,101677.72
2018-12-10T23:39:00.212Z,101676.46
2018-12-10T23:41:31.354Z,101679.44
2018-12-10T23:44:04.944Z,101665.58
2018-12-10T23:46:38.053Z,101676.16
2018-12-10T23:49:11.133Z,101673.81
2018-12-10T23:51:42.317Z,101673.78
2018-12-10T23:54:16.183Z,101672.83
2018-12-10T23:56:49.445Z,101679.92
2018-12-10T23:59:22.800Z,101682.97
